createdAt,value
2019-01-16T00:00:54.058Z,2.97
2019-01-16T00:03:32.801Z,3.03
2019-01-16T00:06:22.283Z,2.70
2019-01-16T00:09:10.998Z,1.57
2019-01-16T00:12:01.857Z,2.97
2019-01-16T00:14:58.587Z,0.60
2019-01-16T00:17:47.390Z,2.77
2019-01-16T00:20:46.525Z,0.50
2019-01-16T00:23:51.521Z,1.57
2019-01-16T00:26:40.191Z,5.10
2019-01-16T00:29:35.781Z,1.00
2019-01-16T00:32:37.876Z,0.63
2019-01-16T00:35:30.810Z,1.13
2019-01-16T00:38:20.764Z,0.90
2019-01-16T00:41:09.202Z,1.00
2019-01-16T00:44:01.879Z,1.30
2019-01-16T00:46:50.089Z,1.33
2019-01-16T00:49:38.822Z,3.90
2019-01-16T00:52:26.168Z,0.87
2019-01-16T00:55:14.677Z,2.40
2019-01-16T00:58:10.518Z,1.33
2019-01-16T01:00:48.963Z,3.80
2019-01-16T01:03:48.067Z,2.70
2019-01-16T01:06:36.761Z,0.87
2019-01-16T01:09:20.554Z,2.87
2019-01-16T01:12:19.554Z,2.47
2019-01-16T01:15:00.245Z,2.27
2019-01-16T01:17:53.275Z,1.67
2019-01-16T01:20:43.273Z,2.93
2019-01-16T01:23:36.066Z,3.03
2019-01-16T01:26:25.142Z,1.73
2019-01-16T01:29:17.666Z,1.50
2019-01-16T01:32:09.315Z,1.33
2019-01-16T01:34:52.774Z,1.47
2019-01-16T01:37:45.866Z,1.97
2019-01-16T01:40:51.160Z,4.73
2019-01-16T01:43:39.835Z,3.20
2019-01-16T01:46:28.230Z,3.63
2019-01-16T01:49:10.591Z,3.13
2019-01-16T01:52:00.489Z,4.00
2019-01-16T01:54:51.514Z,1.73
2019-01-16T01:57:50.598Z,4.07
2019-01-16T02:00:46.677Z,3.43
2019-01-16T02:03:35.477Z,2.00
2019-01-16T02:06:14.230Z,2.20
2019-01-16T02:09:16.056Z,3.30
2019-01-16T02:12:11.795Z,3.03
2019-01-16T02:14:59.529Z,3.43
2019-01-16T02:17:48.050Z,2.93
2019-01-16T02:20:45.499Z,4.30
2019-01-16T02:23:33.446Z,2.33
2019-01-16T02:26:39.448Z,2.50
2019-01-16T02:29:33.691Z,3.83
2019-01-16T02:32:32.708Z,3.53
2019-01-16T02:35:40.602Z,4.93
2019-01-16T02:38:29.051Z,4.43
2019-01-16T02:41:18.073Z,7.10
2019-01-16T02:44:06.592Z,3.87
2019-01-16T02:46:55.126Z,5.17
2019-01-16T02:49:35.558Z,5.23
2019-01-16T02:52:37.373Z,3.27
2019-01-16T02:55:32.172Z,2.03
2019-01-16T02:58:11.508Z,3.90
2019-01-16T03:00:59.926Z,3.67
2019-01-16T03:03:58.690Z,3.00
2019-01-16T03:06:42.075Z,6.47
2019-01-16T03:09:31.773Z,5.57
2019-01-16T03:12:24.988Z,9.30
2019-01-16T03:15:14.949Z,3.17
2019-01-16T03:18:23.156Z,5.40
2019-01-16T03:21:17.660Z,3.60
2019-01-16T03:24:04.328Z,4.53
2019-01-16T03:26:44.698Z,4.47
2019-01-16T03:29:37.905Z,4.20
2019-01-16T03:32:28.031Z,4.23
2019-01-16T03:35:30.150Z,4.20
2019-01-16T03:38:13.232Z,7.40
2019-01-16T03:40:56.673Z,5.67
2019-01-16T03:43:47.238Z,7.70
2019-01-16T03:46:35.755Z,4.63
2019-01-16T03:49:25.998Z,4.63
2019-01-16T03:52:14.639Z,5.23
2019-01-16T03:55:03.285Z,5.90
2019-01-16T03:57:51.877Z,6.13
2019-01-16T04:00:40.631Z,5.73
2019-01-16T04:03:34.696Z,4.67
2019-01-16T04:06:33.798Z,4.97
2019-01-16T04:09:24.986Z,3.17
2019-01-16T04:12:19.108Z,6.10
2019-01-16T04:15:24.162Z,7.77
2019-01-16T04:18:19.670Z,4.53
2019-01-16T04:21:10.921Z,7.50
2019-01-16T04:23:51.889Z,4.87
2019-01-16T04:26:40.627Z,5.17
2019-01-16T04:29:30.645Z,7.97
2019-01-16T04:32:35.690Z,5.67
2019-01-16T04:35:24.564Z,9.07
2019-01-16T04:38:17.342Z,8.80
2019-01-16T04:41:19.535Z,7.67
2019-01-16T04:44:06.922Z,8.70
2019-01-16T04:46:56.829Z,7.73
2019-01-16T04:49:35.046Z,8.07
2019-01-16T04:52:23.509Z,7.90
2019-01-16T04:55:04.670Z,7.27
2019-01-16T04:57:54.427Z,10.50
2019-01-16T05:00:49.795Z,10.10
2019-01-16T05:03:48.797Z,50.50
2019-01-16T05:12:42.987Z,12.07
2019-01-16T05:15:47.683Z,9.57
2019-01-16T05:18:46.592Z,12.20
2019-01-16T05:21:41.413Z,14.83
2019-01-16T05:24:22.089Z,13.40
2019-01-16T05:27:09.772Z,13.27
2019-01-16T05:30:14.797Z,16.63
2019-01-16T05:32:54.785Z,17.07
2019-01-16T05:35:50.802Z,17.27
2019-01-16T05:38:39.432Z,18.23
2019-01-16T05:41:44.524Z,16.93
2019-01-16T05:44:37.665Z,12.63
2019-01-16T05:47:42.560Z,15.20
2019-01-16T05:50:44.792Z,17.13
2019-01-16T05:53:32.774Z,33.33
2019-01-16T05:56:28.502Z,18.50
2019-01-16T05:59:24.212Z,22.43
2019-01-16T06:02:16.966Z,18.73
2019-01-16T06:07:50.672Z,19.73
2019-01-16T06:10:44.891Z,25.43
2019-01-16T06:13:37.567Z,23.77
2019-01-16T06:16:33.438Z,32.70
2019-01-16T06:19:26.304Z,35.50
2019-01-16T06:22:14.818Z,58.80
2019-01-16T06:25:04.934Z,55.87
2019-01-16T06:27:49.814Z,61.73
2019-01-16T06:30:39.253Z,62.37
2019-01-16T06:33:28.779Z,72.47
2019-01-16T06:36:11.296Z,79.87
2019-01-16T06:39:00.023Z,69.17
2019-01-16T06:42:03.704Z,84.93
2019-01-16T06:44:54.398Z,65.57
2019-01-16T06:47:36.857Z,95.97
2019-01-16T06:50:33.422Z,92.27
2019-01-16T06:53:26.238Z,99.63
2019-01-16T06:56:16.053Z,117.33
2019-01-16T06:59:06.683Z,110.60
2019-01-16T07:01:55.927Z,122.63
2019-01-16T07:04:44.715Z,121.33
2019-01-16T07:07:33.861Z,111.13
2019-01-16T07:10:31.614Z,117.83
2019-01-16T07:13:16.463Z,119.53
2019-01-16T07:15:58.452Z,130.97
2019-01-16T07:18:53.866Z,119.00
2019-01-16T07:21:59.140Z,112.93
2019-01-16T07:25:06.799Z,111.57
2019-01-16T07:28:06.212Z,113.60
2019-01-16T07:30:55.647Z,107.23
2019-01-16T07:33:38.382Z,103.77
2019-01-16T07:36:30.321Z,82.43
2019-01-16T07:39:26.626Z,101.40
2019-01-16T07:42:33.973Z,104.33
2019-01-16T07:48:34.098Z,95.50
2019-01-16T07:51:28.652Z,93.57
2019-01-16T07:54:23.213Z,94.33
2019-01-16T07:57:22.047Z,81.47
2019-01-16T08:00:18.026Z,95.70
2019-01-16T08:03:26.747Z,90.47
2019-01-16T08:06:15.325Z,87.27
2019-01-16T08:09:03.495Z,100.50
2019-01-16T08:11:48.554Z,101.13
2019-01-16T08:14:39.044Z,86.73
2019-01-16T08:17:27.535Z,103.37
2019-01-16T08:20:32.005Z,104.80
2019-01-16T08:23:30.838Z,108.40
2019-01-16T08:26:19.173Z,126.13
2019-01-16T08:29:08.606Z,124.73
2019-01-16T08:31:57.126Z,121.47
2019-01-16T08:34:58.866Z,112.40
2019-01-16T08:37:45.029Z,98.00
2019-01-16T08:40:44.786Z,111.73
2019-01-16T08:43:43.673Z,97.10
2019-01-16T08:46:32.675Z,104.23
2019-01-16T08:49:28.198Z,114.43
2019-01-16T08:52:14.459Z,104.83
2019-01-16T08:55:03.921Z,115.47
2019-01-16T08:57:57.079Z,104.23
2019-01-16T09:00:46.778Z,102.60
2019-01-16T09:03:45.767Z,105.23
2019-01-16T09:06:35.341Z,94.60
2019-01-16T09:09:46.575Z,112.00
2019-01-16T09:12:46.394Z,101.07
2019-01-16T09:15:36.918Z,131.87
2019-01-16T09:18:29.619Z,86.60
2019-01-16T09:21:22.110Z,117.43
2019-01-16T09:24:10.264Z,89.57
2019-01-16T09:26:58.621Z,86.77
2019-01-16T09:29:51.338Z,84.90
2019-01-16T09:32:46.198Z,89.83
2019-01-16T09:35:35.953Z,86.50
2019-01-16T09:38:26.012Z,90.53
2019-01-16T09:41:33.713Z,75.13
2019-01-16T09:44:12.031Z,73.57
2019-01-16T09:47:13.972Z,65.87
2019-01-16T09:49:57.648Z,64.97
2019-01-16T09:52:53.392Z,61.23
2019-01-16T09:55:45.760Z,46.07
2019-01-16T09:58:47.481Z,51.40
2019-01-16T10:01:46.012Z,59.60
2019-01-16T10:04:35.682Z,60.23
2019-01-16T10:07:27.861Z,52.40
2019-01-16T10:10:23.561Z,47.13
2019-01-16T10:13:28.292Z,52.13
2019-01-16T10:16:20.720Z,45.37
2019-01-16T10:19:19.354Z,37.77
2019-01-16T10:22:15.010Z,45.63
2019-01-16T10:24:55.817Z,54.50
2019-01-16T10:27:40.978Z,41.67
2019-01-16T10:30:33.151Z,40.40
2019-01-16T10:33:21.806Z,43.80
2019-01-16T10:36:17.224Z,28.23
2019-01-16T10:39:07.108Z,22.67
2019-01-16T10:42:09.154Z,26.03
2019-01-16T10:44:58.810Z,26.50
2019-01-16T10:47:54.261Z,25.20
2019-01-16T10:50:41.130Z,25.50
2019-01-16T10:53:34.157Z,24.43
2019-01-16T10:56:16.295Z,26.07
2019-01-16T10:59:06.930Z,23.23
2019-01-16T11:01:59.640Z,22.93
2019-01-16T11:04:58.977Z,28.97
2019-01-16T11:07:48.810Z,22.10
2019-01-16T11:10:47.790Z,19.37
2019-01-16T11:13:38.249Z,29.00
2019-01-16T11:16:33.949Z,26.77
2019-01-16T11:19:22.609Z,22.07
2019-01-16T11:22:12.586Z,26.93
2019-01-16T11:25:02.416Z,19.07
2019-01-16T11:27:55.650Z,18.03
2019-01-16T11:30:44.190Z,19.90
2019-01-16T11:33:49.597Z,20.10
2019-01-16T11:36:43.059Z,19.63
2019-01-16T11:39:31.491Z,22.87
2019-01-16T11:42:19.818Z,22.80
2019-01-16T11:45:15.510Z,24.30
2019-01-16T11:48:08.561Z,27.03
2019-01-16T11:50:57.055Z,25.30
2019-01-16T11:53:43.518Z,26.20
2019-01-16T11:56:42.798Z,23.77
2019-01-16T11:59:31.190Z,23.43
2019-01-16T12:02:12.747Z,21.70
2019-01-16T12:05:17.553Z,30.67
2019-01-16T12:08:06.352Z,29.37
2019-01-16T12:10:54.600Z,23.07
2019-01-16T12:13:56.723Z,25.73
2019-01-16T12:16:52.624Z,25.53
2019-01-16T12:19:42.594Z,28.27
2019-01-16T12:22:38.414Z,26.80
2019-01-16T12:25:47.210Z,22.13
2019-01-16T12:28:37.231Z,15.83
2019-01-16T12:31:17.744Z,16.50
2019-01-16T12:34:16.921Z,14.70
2019-01-16T12:37:25.758Z,14.10
2019-01-16T12:40:34.223Z,14.33
2019-01-16T12:43:23.043Z,15.03
2019-01-16T12:46:19.060Z,16.80
2019-01-16T12:49:27.035Z,13.30
2019-01-16T12:52:16.169Z,13.53
2019-01-16T12:55:12.265Z,17.47
2019-01-16T12:58:05.720Z,13.77
2019-01-16T13:01:24.958Z,14.37
2019-01-16T13:04:28.437Z,17.50
2019-01-16T13:07:19.197Z,17.30
2019-01-16T13:10:06.213Z,15.67
2019-01-16T13:12:57.479Z,16.30
2019-01-16T13:15:47.733Z,16.07
2019-01-16T13:18:52.942Z,13.80
2019-01-16T13:21:42.075Z,14.20
2019-01-16T13:24:23.032Z,13.23
2019-01-16T13:27:18.024Z,16.10
2019-01-16T13:30:08.757Z,15.60
2019-01-16T13:32:57.537Z,15.40
2019-01-16T13:35:50.657Z,18.93
2019-01-16T13:38:39.897Z,17.43
2019-01-16T13:41:19.923Z,14.37
2019-01-16T13:44:25.174Z,15.50
2019-01-16T13:47:21.355Z,20.17
2019-01-16T13:50:11.689Z,22.10
2019-01-16T13:53:04.429Z,19.33
2019-01-16T13:55:52.370Z,24.40
2019-01-16T13:58:40.781Z,19.80
2019-01-16T14:01:36.438Z,23.07
2019-01-16T14:04:24.674Z,20.23
2019-01-16T14:07:05.370Z,25.43
2019-01-16T14:10:10.540Z,24.33
2019-01-16T14:12:58.851Z,25.87
2019-01-16T14:16:00.948Z,31.00
2019-01-16T14:18:50.657Z,33.67
2019-01-16T14:21:39.323Z,37.93
2019-01-16T14:24:36.061Z,38.40
2019-01-16T14:27:34.076Z,40.57
2019-01-16T14:30:17.413Z,42.20
2019-01-16T14:33:07.655Z,35.37
2019-01-16T14:36:08.175Z,43.67
2019-01-16T14:39:07.180Z,38.57
2019-01-16T14:41:52.797Z,40.13
2019-01-16T14:44:42.609Z,35.80
2019-01-16T14:47:34.801Z,38.97
2019-01-16T14:50:30.202Z,36.80
2019-01-16T14:53:19.142Z,36.33
2019-01-16T14:56:15.787Z,31.47
2019-01-16T14:59:11.887Z,32.07
2019-01-16T15:02:00.746Z,37.50
2019-01-16T15:04:58.573Z,43.73
2019-01-16T15:07:49.221Z,33.97
2019-01-16T15:10:33.038Z,38.20
2019-01-16T15:13:26.625Z,39.43
2019-01-16T15:16:14.650Z,37.00
2019-01-16T15:19:10.868Z,33.40
2019-01-16T15:22:06.449Z,39.40
2019-01-16T15:24:42.809Z,40.47
2019-01-16T15:27:31.798Z,42.13
2019-01-16T15:30:22.870Z,35.17
2019-01-16T15:33:16.619Z,31.57
2019-01-16T15:36:03.337Z,32.20
2019-01-16T15:39:02.901Z,24.10
2019-01-16T15:41:44.573Z,26.17
2019-01-16T15:44:38.056Z,32.13
2019-01-16T15:47:27.244Z,31.00
2019-01-16T15:50:15.562Z,30.90
2019-01-16T15:53:13.746Z,30.97
2019-01-16T15:56:05.263Z,35.00
2019-01-16T15:58:57.652Z,36.27
2019-01-16T16:01:54.815Z,32.87
2019-01-16T16:04:45.776Z,27.13
2019-01-16T16:07:45.054Z,31.77
2019-01-16T16:10:34.336Z,34.03
2019-01-16T16:13:15.345Z,34.97
2019-01-16T16:16:08.457Z,32.33
2019-01-16T16:18:58.027Z,28.97
2019-01-16T16:21:51.198Z,29.80
2019-01-16T16:24:36.519Z,34.27
2019-01-16T16:27:24.956Z,35.80
2019-01-16T16:30:21.376Z,37.37
2019-01-16T16:33:10.377Z,35.03
2019-01-16T16:36:00.557Z,40.20
2019-01-16T16:38:49.439Z,27.00
2019-01-16T16:41:42.185Z,39.90
2019-01-16T16:44:50.664Z,34.17
2019-01-16T16:47:31.001Z,34.77
2019-01-16T16:50:19.533Z,37.77
2019-01-16T16:53:12.180Z,36.73
2019-01-16T16:56:14.408Z,32.47
2019-01-16T16:59:03.899Z,42.00
2019-01-16T17:01:51.096Z,35.57
2019-01-16T17:04:50.366Z,37.53
2019-01-16T17:07:39.409Z,32.97
2019-01-16T17:10:24.713Z,35.13
2019-01-16T17:13:02.519Z,34.60
2019-01-16T17:15:48.800Z,30.23
2019-01-16T17:18:39.626Z,33.57
2019-01-16T17:21:30.039Z,31.20
2019-01-16T17:24:11.517Z,31.20
2019-01-16T17:27:00.262Z,30.93
2019-01-16T17:29:50.153Z,32.80
2019-01-16T17:32:58.987Z,29.57
2019-01-16T17:35:47.500Z,33.47
2019-01-16T17:38:29.190Z,32.33
2019-01-16T17:41:18.103Z,30.67
2019-01-16T17:44:06.328Z,26.10
2019-01-16T17:47:15.018Z,34.33
2019-01-16T17:50:26.625Z,33.90
2019-01-16T17:53:08.071Z,33.70
2019-01-16T17:55:55.893Z,34.53
2019-01-16T17:58:45.810Z,32.73
2019-01-16T18:01:38.562Z,32.67
2019-01-16T18:04:37.782Z,33.60
2019-01-16T18:07:26.305Z,31.40
2019-01-16T18:10:15.177Z,26.77
2019-01-16T18:13:10.692Z,35.77
2019-01-16T18:16:09.771Z,31.67
2019-01-16T18:19:05.878Z,27.37
2019-01-16T18:22:04.814Z,30.97
2019-01-16T18:24:50.352Z,28.43
2019-01-16T18:27:40.465Z,22.63
2019-01-16T18:30:39.531Z,24.50
2019-01-16T18:33:25.144Z,30.00
2019-01-16T18:36:14.190Z,24.93
2019-01-16T18:39:22.008Z,25.90
2019-01-16T18:42:11.247Z,24.27
2019-01-16T18:45:19.516Z,32.80
2019-01-16T18:48:16.031Z,25.93
2019-01-16T18:51:10.392Z,27.30
2019-01-16T18:53:59.735Z,28.23
2019-01-16T18:57:01.834Z,29.13
2019-01-16T19:00:03.706Z,32.30
2019-01-16T19:03:02.395Z,32.00
2019-01-16T19:05:51.413Z,29.37
2019-01-16T19:08:50.392Z,25.47
2019-01-16T19:11:47.995Z,29.70
2019-01-16T19:14:40.210Z,32.63
2019-01-16T19:17:45.140Z,30.30
2019-01-16T19:20:55.583Z,29.87
2019-01-16T19:23:44.699Z,26.17
2019-01-16T19:26:38.089Z,26.07
2019-01-16T19:29:28.901Z,27.97
2019-01-16T19:32:19.307Z,28.37
2019-01-16T19:35:18.269Z,25.53
2019-01-16T19:38:07.812Z,27.23
2019-01-16T19:41:01.158Z,28.03
2019-01-16T19:43:49.500Z,22.50
2019-01-16T19:46:45.741Z,28.50
2019-01-16T19:49:38.947Z,26.80
2019-01-16T19:52:35.265Z,26.63
2019-01-16T19:55:24.387Z,23.47
2019-01-16T19:58:23.541Z,22.13
2019-01-16T20:01:12.885Z,28.17
2019-01-16T20:04:09.280Z,16.13
2019-01-16T20:06:59.751Z,26.10
2019-01-16T20:09:52.883Z,24.00
2019-01-16T20:12:38.923Z,26.17
2019-01-16T20:15:29.900Z,23.77
2019-01-16T20:18:31.419Z,22.93
2019-01-16T20:21:20.576Z,23.07
2019-01-16T20:24:09.686Z,20.30
2019-01-16T20:26:58.978Z,26.63
2019-01-16T20:29:58.166Z,21.87
2019-01-16T20:32:47.129Z,24.90
2019-01-16T20:35:42.977Z,24.37
2019-01-16T20:38:51.854Z,25.83
2019-01-16T20:41:42.544Z,21.63
2019-01-16T20:44:38.605Z,20.70
2019-01-16T20:47:43.718Z,24.43
2019-01-16T20:50:32.564Z,28.27
2019-01-16T20:53:21.432Z,27.40
2019-01-16T20:56:11.176Z,27.13
2019-01-16T20:59:06.723Z,24.13
2019-01-16T21:01:59.380Z,17.13
2019-01-16T21:04:58.211Z,19.53
2019-01-16T21:07:47.038Z,16.60
2019-01-16T21:10:37.636Z,17.30
2019-01-16T21:13:36.747Z,16.90
2019-01-16T21:16:27.004Z,18.33
2019-01-16T21:19:15.359Z,16.10
2019-01-16T21:22:04.319Z,15.13
2019-01-16T21:24:52.880Z,15.30
2019-01-16T21:27:41.537Z,16.40
2019-01-16T21:30:34.277Z,14.57
2019-01-16T21:33:23.095Z,19.77
2019-01-16T21:36:12.875Z,18.53
2019-01-16T21:39:19.019Z,15.07
2019-01-16T21:42:08.857Z,16.33
2019-01-16T21:44:57.563Z,18.97
2019-01-16T21:47:53.425Z,15.00
2019-01-16T21:50:42.743Z,15.50
2019-01-16T21:53:22.255Z,15.60
2019-01-16T21:56:09.700Z,12.43
2019-01-16T21:58:59.674Z,15.93
2019-01-16T22:01:48.191Z,13.83
2019-01-16T22:04:37.460Z,13.93
2019-01-16T22:07:26.303Z,13.73
2019-01-16T22:10:16.535Z,16.00
2019-01-16T22:13:05.286Z,10.17
2019-01-16T22:15:58.206Z,13.10
2019-01-16T22:18:54.399Z,17.60
2019-01-16T22:21:44.441Z,17.60
2019-01-16T22:24:44.581Z,16.60
2019-01-16T22:27:37.290Z,14.47
2019-01-16T22:30:42.261Z,14.23
2019-01-16T22:33:35.068Z,13.63
2019-01-16T22:36:40.472Z,9.27
2019-01-16T22:39:30.361Z,12.33
2019-01-16T22:42:23.027Z,12.27
2019-01-16T22:45:18.905Z,9.60
2019-01-16T22:48:04.474Z,9.57
2019-01-16T22:50:54.229Z,8.03
2019-01-16T22:53:43.991Z,10.27
2019-01-16T22:56:33.855Z,11.37
2019-01-16T22:59:29.850Z,8.23
2019-01-16T23:02:23.020Z,9.90
2019-01-16T23:05:23.461Z,8.50
2019-01-16T23:08:09.866Z,8.30
2019-01-16T23:10:59.999Z,8.33
2019-01-16T23:13:42.994Z,8.43
2019-01-16T23:16:29.728Z,8.40
2019-01-16T23:19:18.169Z,6.57
2019-01-16T23:22:07.095Z,7.77
2019-01-16T23:25:06.009Z,7.43
2019-01-16T23:27:54.410Z,10.23
2019-01-16T23:30:47.251Z,9.20
2019-01-16T23:33:43.019Z,8.97
2019-01-16T23:36:33.007Z,8.77
2019-01-16T23:39:35.040Z,8.67
2019-01-16T23:42:25.188Z,7.73
2019-01-16T23:45:13.592Z,8.73
2019-01-16T23:48:15.821Z,8.33
2019-01-16T23:51:14.879Z,8.40
2019-01-16T23:54:07.630Z,9.67
2019-01-16T23:57:03.326Z,10.27
2019-01-16T23:59:52.257Z,8.13
